Time;durP1;ratioP1;P1;durP2;ratioP2;P2;SDS_P1;SDS_P2;PMS_P1;PMS_P2;Temp;Humidity;BMP_temperature;BMP_pressure;BME280_temperature;BME280_humidity;BME280_pressure;Samples;Min_cycle;Max_cycle;Signal;HPM_P1;HPM_P2
2023/06/14 00:02:47;;;;;;;;;4.00;4.00;;;;;19.55;67.96;100588.69;146615;604;47012;-65
2023/06/14 00:05:42;;;;;;;;;6.00;6.00;;;;;19.57;67.80;100597.50;146622;626;46025;-64
2023/06/14 00:08:35;;;;;;;;;7.00;4.00;;;;;19.56;67.40;100588.72;146614;597;47016;-64
2023/06/14 00:11:34;;;;;;;;;6.33;6.33;;;;;19.54;68.01;100587.81;146621;563;47010;-64
2023/06/14 00:14:43;;;;;;;;;5.00;4.67;;;;;19.50;68.04;100588.66;146614;579;47012;-64
2023/06/14 00:17:42;;;;;;;;;7.33;4.67;;;;;19.48;68.06;100592.13;146620;587;46020;-64
2023/06/14 00:20:48;;;;;;;;;6.00;5.00;;;;;19.51;68.75;100576.37;146615;588;46014;-65
2023/06/14 00:23:52;;;;;;;;;6.00;4.67;;;;;19.58;68.39;100588.75;146611;684;46867;-67
2023/06/14 00:26:56;;;;;;;;;4.67;4.67;;;;;19.65;67.71;100581.84;146616;584;46583;-68
2023/06/14 00:30:04;;;;;;;;;6.00;4.33;;;;;17.14;67.62;100135.59;146611;609;46021;-65
2023/06/14 00:33:11;;;;;;;;;5.67;4.67;;;;;19.74;68.28;100580.19;146611;580;46016;-67
2023/06/14 00:36:07;;;;;;;;;6.67;6.00;;;;;19.76;67.86;100581.09;146620;574;46021;-65
2023/06/14 00:39:05;;;;;;;;;9.00;6.00;;;;;19.75;67.57;100578.44;146612;590;47012;-65
2023/06/14 00:42:01;;;;;;;;;6.00;5.00;;;;;19.71;67.97;100577.53;146619;655;47010;-66
2023/06/14 00:44:56;;;;;;;;;5.33;5.33;;;;;19.73;68.33;100573.16;146614;574;47016;-66
2023/06/14 00:47:55;;;;;;;;;4.00;4.00;;;;;19.75;68.30;100576.72;146617;589;46020;-69
2023/06/14 00:51:37;;;;;;;;;;;;;;;;;;;;;
2023/06/14 00:54:37;;;;;;;;;4.00;4.00;;;;;19.76;67.59;100569.69;146618;615;46034;-66
2023/06/14 00:57:39;;;;;;;;;6.00;5.00;;;;;19.73;67.45;100573.16;146613;596;47016;-65
2023/06/14 01:00:40;;;;;;;;;4.67;4.00;;;;;19.72;67.88;100570.50;146613;637;46020;-65
2023/06/14 01:03:44;;;;;;;;;5.33;5.33;;;;;19.64;67.60;100572.16;146617;587;46012;-64
2023/06/14 01:07:09;;;;;;;;;6.00;5.00;;;;;19.52;67.91;100565.00;146616;595;47014;-64
2023/06/14 01:10:42;;;;;;;;;5.00;5.00;;;;;19.46;68.29;100573.69;146616;603;47915;-63
2023/06/14 01:14:04;;;;;;;;;5.00;5.00;;;;;16.92;67.45;100157.94;146616;611;47034;-63
2023/06/14 01:17:28;;;;;;;;;5.33;4.33;;;;;19.41;68.01;100566.59;146612;649;47016;-64
2023/06/14 01:20:42;;;;;;;;;4.67;4.67;;;;;17.06;67.34;100159.91;146619;564;46021;-64
2023/06/14 01:24:03;;;;;;;;;6.00;4.67;;;;;19.37;67.37;100563.03;146616;600;46016;-64
2023/06/14 01:27:07;;;;;;;;;5.00;4.00;;;;;16.78;67.24;100119.28;146622;580;46011;-64
2023/06/14 01:30:25;;;;;;;;;7.00;5.67;;;;;19.35;67.49;100568.28;146614;613;47012;-66
2023/06/14 01:33:33;;;;;;;;;6.00;4.67;;;;;19.36;68.12;100562.16;146612;621;47014;-65
2023/06/14 01:36:40;;;;;;;;;6.33;5.67;;;;;19.38;68.14;100556.94;146613;567;47012;-65
2023/06/14 01:39:56;;;;;;;;;5.33;5.00;;;;;19.35;68.17;100557.78;146617;702;47010;-66
2023/06/14 01:42:59;;;;;;;;;5.33;4.00;;;;;19.25;68.47;100558.53;146616;643;47013;-66
2023/06/14 01:46:03;;;;;;;;;4.00;4.00;;;;;19.17;68.44;100554.03;146620;600;46025;-65
2023/06/14 01:48:59;;;;;;;;;4.33;4.00;;;;;19.07;68.41;100546.03;146616;604;46016;-66
2023/06/14 01:52:04;;;;;;;;;4.00;4.00;;;;;18.97;68.70;100540.59;146621;618;47010;-66
2023/06/14 01:55:17;;;;;;;;;6.00;5.00;;;;;18.88;69.27;100546.63;146616;596;46016;-66
2023/06/14 01:58:26;;;;;;;;;6.00;5.00;;;;;16.03;68.51;100057.78;146620;624;46021;-66
2023/06/14 02:01:27;;;;;;;;;6.00;5.00;;;;;18.80;69.07;100541.25;146616;577;47016;-66
2023/06/14 02:04:33;;;;;;;;;5.00;5.00;;;;;17.48;68.80;100316.06;146614;652;47010;-66
2023/06/14 02:07:39;;;;;;;;;5.00;4.33;;;;;18.86;69.50;100545.72;146616;600;46016;-67
2023/06/14 02:10:31;;;;;;;;;6.33;5.67;;;;;18.90;69.02;100545.75;146615;612;47010;-67
2023/06/14 02:13:23;;;;;;;;;6.00;6.00;;;;;18.97;69.32;100551.09;146613;596;47012;-66
2023/06/14 02:16:29;;;;;;;;;6.67;5.67;;;;;19.00;69.70;100552.03;146620;575;46020;-66
2023/06/14 02:19:25;;;;;;;;;6.00;5.33;;;;;19.01;69.53;100564.31;146614;629;47033;-67
2023/06/14 02:22:18;;;;;;;;;5.00;5.00;;;;;19.01;69.65;100563.44;146618;645;47020;-67
2023/06/14 02:25:17;;;;;;;;;5.00;5.00;;;;;19.00;69.26;100569.53;146617;627;46033;-66
2023/06/14 02:28:35;;;;;;;;;5.33;5.33;;;;;18.90;69.18;100564.16;146619;578;46021;-66
2023/06/14 02:31:34;;;;;;;;;5.67;5.67;;;;;18.76;69.59;100564.84;146618;577;46016;-66
2023/06/14 02:34:46;;;;;;;;;;;;;;;;;;;;;
2023/06/14 02:37:58;;;;;;;;;6.67;5.33;;;;;17.11;69.80;100318.91;146613;628;46016;-67
2023/06/14 02:40:57;;;;;;;;;5.67;5.33;;;;;18.48;70.59;100568.72;146636;607;46010;-67
2023/06/14 02:44:01;;;;;;;;;6.00;6.00;;;;;18.43;70.72;100566.00;146636;581;45016;-66
2023/06/14 02:47:06;;;;;;;;;6.67;4.33;;;;;18.38;70.97;100579.06;146638;601;46010;-65
2023/06/14 02:50:01;;;;;;;;;6.00;6.00;;;;;18.40;71.40;100585.22;146636;633;45016;-65
2023/06/14 02:53:00;;;;;;;;;5.00;5.00;;;;;18.41;71.17;100593.97;146634;641;46020;-65
2023/06/14 02:56:04;;;;;;;;;7.67;5.00;;;;;18.43;71.09;100590.50;146634;583;46017;-65
2023/06/14 02:58:57;;;;;;;;;6.00;5.00;;;;;18.46;71.58;100593.19;146636;574;45010;-65
2023/06/14 03:01:49;;;;;;;;;5.00;5.00;;;;;18.44;71.45;100587.06;146634;566;45031;-66
2023/06/14 03:04:51;;;;;;;;;5.33;4.67;;;;;18.39;71.80;100580.81;146633;566;45010;-65
2023/06/14 03:08:00;;;;;;;;;8.33;6.33;;;;;18.37;71.81;100593.03;146634;593;45016;-64
2023/06/14 03:11:11;;;;;;;;;6.00;4.33;;;;;18.36;71.80;100604.41;146630;622;46020;-65
2023/06/14 03:14:11;;;;;;;;;7.67;4.67;;;;;18.39;71.78;100606.19;146633;573;45032;-67
2023/06/14 03:17:12;;;;;;;;;7.33;6.33;;;;;18.40;71.46;100606.22;146635;629;45050;-66
2023/06/14 03:20:27;;;;;;;;;7.25;7.25;;;;;15.63;70.87;100135.37;146630;685;46012;-65
2023/06/14 03:23:29;;;;;;;;;4.00;4.00;;;;;18.39;71.24;100614.06;146636;563;45010;-65
2023/06/14 03:26:30;;;;;;;;;5.00;4.00;;;;;18.43;71.29;100616.75;146637;564;45017;-66
2023/06/14 03:29:30;;;;;;;;;7.00;7.00;;;;;18.48;70.72;100618.62;146637;581;45020;-64
2023/06/14 03:32:23;;;;;;;;;4.67;4.67;;;;;18.54;70.74;100621.34;146632;569;46016;-64
2023/06/14 03:35:26;;;;;;;;;5.00;4.00;;;;;17.22;70.37;100393.34;146630;567;45020;-64
2023/06/14 03:38:25;;;;;;;;;5.33;5.00;;;;;18.67;71.41;100632.06;146623;588;46915;-65
2023/06/14 03:41:41;;;;;;;;;4.75;4.00;;;;;16.31;69.90;100204.78;146619;590;47010;-65
2023/06/14 03:44:42;;;;;;;;;5.67;4.33;;;;;18.89;70.22;100633.34;146617;635;46012;-65
2023/06/14 03:47:36;;;;;;;;;7.33;4.67;;;;;18.96;69.75;100633.44;146615;565;47011;-65
2023/06/14 03:50:30;;;;;;;;;4.75;4.75;;;;;19.03;70.22;100632.66;146617;583;47034;-63
2023/06/14 03:53:36;;;;;;;;;5.67;5.67;;;;;19.09;69.82;100638.88;146614;600;47010;-64
2023/06/14 03:56:29;;;;;;;;;5.00;5.00;;;;;19.17;69.76;100652.16;146617;639;46029;-64
2023/06/14 03:59:25;;;;;;;;;5.33;5.33;;;;;19.24;69.74;100648.75;146621;659;46029;-64
2023/06/14 04:02:23;;;;;;;;;8.00;6.00;;;;;19.25;70.04;100649.63;146613;637;46017;-64
2023/06/14 04:05:49;;;;;;;;;6.25;6.25;;;;;19.25;70.26;100649.63;146610;631;46014;-64
2023/06/14 04:08:49;;;;;;;;;5.67;4.00;;;;;19.36;69.48;100655.94;146619;585;46012;-65
2023/06/14 04:11:52;;;;;;;;;7.33;4.33;;;;;19.52;69.78;100654.41;146618;604;47020;-64
2023/06/14 04:14:48;;;;;;;;;8.33;7.33;;;;;19.68;69.54;100652.88;146618;643;46012;-64
2023/06/14 04:17:47;;;;;;;;;5.33;5.33;;;;;19.83;69.17;100653.97;146619;585;46011;-64
2023/06/14 04:21:00;;;;;;;;;5.00;4.67;;;;;17.42;68.06;100203.28;146613;636;47012;-64
2023/06/14 04:23:57;;;;;;;;;6.67;6.33;;;;;20.14;68.53;100651.69;146617;569;47021;-63
2023/06/14 04:26:53;;;;;;;;;11.33;9.00;;;;;20.29;69.13;100661.53;146616;569;46012;-64
2023/06/14 04:30:00;;;;;;;;;9.00;8.00;;;;;20.42;69.30;100649.34;146614;649;47010;-64
2023/06/14 04:33:05;;;;;;;;;6.00;5.67;;;;;20.56;69.10;100655.69;146615;585;46016;-64
2023/06/14 04:36:09;;;;;;;;;3.25;3.25;;;;;20.75;68.10;100659.38;146613;597;47010;-64
2023/06/14 04:39:04;;;;;;;;;4.75;4.75;;;;;20.91;68.83;100658.63;146613;658;47012;-64
2023/06/14 04:42:00;;;;;;;;;9.00;8.67;;;;;21.11;67.81;100652.59;146620;602;46020;-64
2023/06/14 04:45:12;;;;;;;;;7.33;7.33;;;;;21.32;67.72;100660.66;146610;614;46915;-64
2023/06/14 04:48:33;;;;;;;;;6.00;5.33;;;;;21.56;66.68;100657.31;146616;584;46020;-68
2023/06/14 04:51:29;;;;;;;;;4.33;4.33;;;;;21.82;66.67;100653.91;146614;590;47012;-68
2023/06/14 04:54:27;;;;;;;;;6.67;5.00;;;;;22.02;64.23;100657.50;146619;626;47010;-67
2023/06/14 04:57:32;;;;;;;;;;;;;;;;;;;;;
2023/06/14 05:00:28;;;;;;;;;6.33;5.67;;;;;22.32;63.44;100655.88;146621;631;46010;-67
2023/06/14 05:03:37;;;;;;;;;7.00;6.00;;;;;22.44;63.02;100655.91;146610;564;47013;-66
2023/06/14 05:06:49;;;;;;;;;9.00;8.00;;;;;20.06;62.49;100219.97;146611;590;46020;-65
2023/06/14 05:09:57;;;;;;;;;;;;;;;;;;;;;
2023/06/14 05:13:00;;;;;;;;;10.00;8.67;;;;;22.85;61.37;100659.44;146618;565;47010;-65
2023/06/14 05:15:57;;;;;;;;;8.00;8.00;;;;;23.00;60.95;100663.00;146609;608;48016;-65
2023/06/14 05:19:12;;;;;;;;;9.00;8.00;;;;;23.15;60.26;100661.25;146618;622;46051;-65
2023/06/14 05:22:32;;;;;;;;;8.00;8.00;;;;;23.32;60.21;100670.00;146614;628;46016;-65
2023/06/14 05:25:36;;;;;;;;;10.33;9.00;;;;;23.49;59.72;100676.16;146621;583;46020;-66
2023/06/14 05:28:37;;;;;;;;;8.00;7.00;;;;;23.64;58.64;100669.91;146615;585;47016;-67
2023/06/14 05:31:38;;;;;;;;;8.00;7.33;;;;;23.76;58.01;100670.81;146618;580;46010;-66
2023/06/14 05:34:33;;;;;;;;;6.67;6.00;;;;;23.90;58.80;100675.16;146614;567;46038;-69
2023/06/14 05:37:55;;;;;;;;;7.33;6.33;;;;;24.08;58.92;100681.25;146615;573;46010;-68
2023/06/14 05:40:53;;;;;;;;;6.67;5.67;;;;;24.32;58.27;100681.13;146634;579;45915;-69
2023/06/14 05:43:57;;;;;;;;;8.00;7.67;;;;;24.50;56.67;100679.28;146631;563;47010;-65
2023/06/14 05:46:56;;;;;;;;;5.33;5.00;;;;;24.62;56.60;100673.91;146631;590;46016;-66
2023/06/14 05:49:56;;;;;;;;;7.67;7.67;;;;;24.76;56.98;100677.31;146637;665;46014;-68
2023/06/14 05:52:57;;;;;;;;;8.33;6.33;;;;;24.93;56.04;100689.59;146636;567;45016;-68
2023/06/14 05:56:01;;;;;;;;;8.00;7.00;;;;;25.01;55.12;100685.06;146636;614;46010;-68
2023/06/14 05:59:00;;;;;;;;;6.33;6.33;;;;;25.01;55.12;100688.59;146631;577;47016;-67
2023/06/14 06:01:55;;;;;;;;;13.25;11.25;;;;;25.03;54.70;100692.13;146633;734;46011;-68
2023/06/14 06:04:51;;;;;;;;;6.33;6.33;;;;;25.03;53.35;100697.44;146631;591;46010;-67
2023/06/14 06:07:58;;;;;;;;;;;;;;;;;;;;;
2023/06/14 06:11:06;;;;;;;;;9.67;9.33;;;;;25.00;55.29;100709.84;146635;643;45019;-68
2023/06/14 06:13:58;;;;;;;;;9.33;7.67;;;;;25.00;54.07;100712.50;146634;591;45020;-67
2023/06/14 06:17:10;;;;;;;;;7.00;7.00;;;;;22.83;54.81;100345.75;146635;574;45013;-68
2023/06/14 06:20:07;;;;;;;;;8.00;7.33;;;;;25.00;53.26;100731.06;146636;587;46020;-67
2023/06/14 06:23:40;;;;;;;;;7.33;7.33;;;;;24.99;55.26;100734.63;146632;598;46016;-67
2023/06/14 06:26:44;;;;;;;;;8.33;8.33;;;;;25.02;54.33;100732.84;146636;595;45010;-67
2023/06/14 06:29:48;;;;;;;;;8.00;8.00;;;;;25.08;53.02;100735.44;146631;569;46914;-67
2023/06/14 06:32:48;;;;;;;;;5.33;5.33;;;;;25.16;52.82;100746.00;146636;564;45021;-67
2023/06/14 06:35:46;;;;;;;;;7.33;7.33;;;;;25.20;52.88;100737.12;146633;580;46012;-67
2023/06/14 06:38:49;;;;;;;;;6.33;6.00;;;;;25.31;51.12;100737.03;146626;595;46021;-67
2023/06/14 06:41:50;;;;;;;;;6.67;6.67;;;;;25.44;52.62;100736.03;146613;684;46016;-68
2023/06/14 06:44:42;;;;;;;;;5.00;5.00;;;;;25.56;48.75;100740.34;146621;571;47010;-68
2023/06/14 06:47:58;;;;;;;;;6.00;4.67;;;;;25.63;52.14;100736.72;146613;603;46017;-68
2023/06/14 06:51:07;;;;;;;;;7.67;5.33;;;;;25.71;51.06;100750.78;146617;626;46020;-67
2023/06/14 06:54:20;;;;;;;;;5.33;4.00;;;;;25.78;48.45;100746.28;146613;590;47017;-68
2023/06/14 06:57:23;;;;;;;;;4.00;4.00;;;;;25.78;49.06;100767.53;146616;577;47020;-67
2023/06/14 07:00:29;;;;;;;;;4.33;4.33;;;;;23.34;49.19;100342.84;146613;616;46016;-67
2023/06/14 07:03:38;;;;;;;;;5.00;5.00;;;;;25.82;48.83;100763.09;146618;572;47020;-67
2023/06/14 07:06:38;;;;;;;;;5.67;5.00;;;;;25.82;50.95;100769.28;146616;587;46917;-67
2023/06/14 07:09:30;;;;;;;;;6.00;5.00;;;;;25.87;48.73;100766.59;146609;564;46011;-67
2023/06/14 07:12:39;;;;;;;;;2.00;1.00;;;;;25.93;48.48;100770.06;146615;679;46016;-67
2023/06/14 07:15:53;;;;;;;;;4.00;4.00;;;;;23.60;50.05;100345.25;146614;598;46021;-68
2023/06/14 07:19:32;;;;;;;;;5.33;5.33;;;;;26.18;51.09;100767.12;146612;576;47012;-68
2023/06/14 07:22:43;;;;;;;;;3.00;3.00;;;;;26.28;49.54;100763.44;146621;586;46010;-67
2023/06/14 07:25:52;;;;;;;;;3.00;3.00;;;;;26.38;47.04;100759.75;146616;585;46016;-68
2023/06/14 07:28:49;;;;;;;;;2.00;2.00;;;;;26.45;47.63;100758.81;146618;659;47010;-67
2023/06/14 07:31:54;;;;;;;;;5.00;5.00;;;;;26.49;46.68;100765.84;146614;667;46016;-67
2023/06/14 07:34:50;;;;;;;;;3.67;3.67;;;;;26.52;47.05;100764.94;146617;601;47010;-68
2023/06/14 07:37:50;;;;;;;;;5.33;4.00;;;;;26.58;46.74;100774.62;146613;569;46037;-68
2023/06/14 07:40:44;;;;;;;;;6.00;6.00;;;;;26.63;45.90;100768.31;146632;624;45010;-67
2023/06/14 07:43:43;;;;;;;;;4.00;4.00;;;;;26.66;46.99;100762.94;146631;671;45916;-68
2023/06/14 07:46:50;;;;;;;;;6.33;4.00;;;;;26.71;49.65;100770.88;146636;591;46020;-69
2023/06/14 07:49:49;;;;;;;;;6.33;5.00;;;;;26.84;45.75;100763.59;146635;592;45914;-68
2023/06/14 07:52:54;;;;;;;;;5.33;4.00;;;;;24.68;50.37;100381.34;146636;579;45011;-68
2023/06/14 07:55:52;;;;;;;;;3.00;3.00;;;;;26.96;49.01;100766.06;146633;569;45012;-68
2023/06/14 07:59:09;;;;;;;;;4.67;4.67;;;;;27.00;47.21;100762.44;146634;630;46014;-68
2023/06/14 08:02:12;;;;;;;;;3.67;3.67;;;;;27.15;48.58;100766.69;146635;665;45915;-67
2023/06/14 08:05:47;;;;;;;;;3.67;3.67;;;;;27.23;43.71;100766.53;146633;698;45020;-67
2023/06/14 08:08:56;;;;;;;;;4.67;3.67;;;;;25.79;47.45;100528.50;146632;580;47017;-68
2023/06/14 08:12:00;;;;;;;;;6.00;5.00;;;;;27.27;49.16;100771.81;146628;645;45030;-67
2023/06/14 08:14:52;;;;;;;;;4.67;4.00;;;;;27.29;44.24;100779.75;146636;575;45016;-68
2023/06/14 08:18:14;;;;;;;;;6.00;6.00;;;;;27.38;44.58;100774.28;146635;624;45023;-67
2023/06/14 08:21:36;;;;;;;;;4.00;4.00;;;;;26.18;49.34;100571.34;146631;572;45912;-68
2023/06/14 08:24:34;;;;;;;;;4.67;4.67;;;;;27.36;44.72;100776.97;146635;639;45021;-67
2023/06/14 08:27:32;;;;;;;;;4.00;3.00;;;;;27.38;45.01;100776.94;146630;592;45016;-67
2023/06/14 08:30:32;;;;;;;;;5.00;5.00;;;;;27.37;46.21;100784.03;146635;666;45030;-67
2023/06/14 08:33:31;;;;;;;;;5.33;5.33;;;;;27.39;45.44;100776.06;146624;648;47012;-68
2023/06/14 08:36:37;;;;;;;;;3.00;3.00;;;;;27.44;47.32;100782.16;146633;632;46015;-68
2023/06/14 08:39:24;;;;;;;;;5.00;5.00;;;;;27.44;46.11;100773.28;146704;573;46022;-68
2023/06/14 08:42:33;;;;;;;;;3.00;3.00;;;;;27.47;46.83;100774.12;146618;612;46016;-68
2023/06/14 08:45:30;;;;;;;;;5.00;5.00;;;;;27.55;44.85;100769.53;146618;566;46010;-69
2023/06/14 08:48:34;;;;;;;;;5.00;5.00;;;;;25.53;46.64;100404.06;146612;605;46016;-69
2023/06/14 08:51:33;;;;;;;;;4.67;4.67;;;;;27.75;45.05;100765.63;146618;638;46020;-68
2023/06/14 08:54:43;;;;;;;;;4.33;4.33;;;;;26.55;46.27;100544.19;146610;599;46016;-68
2023/06/14 08:57:30;;;;;;;;;6.00;5.33;;;;;27.99;43.12;100762.50;146703;564;46013;-67
2023/06/14 09:00:53;;;;;;;;;5.00;5.00;;;;;28.16;45.14;100770.16;146618;600;46012;-68
2023/06/14 09:03:57;;;;;;;;;4.67;4.67;;;;;28.29;41.30;100766.34;146623;578;46010;-67
2023/06/14 09:07:13;;;;;;;;;6.33;5.33;;;;;28.34;45.01;100766.22;146619;633;46016;-68
2023/06/14 09:10:19;;;;;;;;;4.00;4.00;;;;;28.31;42.82;100766.28;146624;649;46020;-68
2023/06/14 09:13:14;;;;;;;;;4.33;4.33;;;;;28.37;43.01;100770.62;146615;594;46014;-67
2023/06/14 09:16:14;;;;;;;;;3.67;3.67;;;;;28.38;41.51;100762.59;146617;684;46020;-67
2023/06/14 09:19:06;;;;;;;;;5.67;5.67;;;;;28.41;43.27;100765.25;146618;657;46017;-68
2023/06/14 09:21:58;;;;;;;;;5.00;5.00;;;;;28.43;42.57;100757.19;146621;569;46010;-68
2023/06/14 09:24:50;;;;;;;;;3.67;3.00;;;;;28.42;43.55;100768.78;146618;648;46016;-66
2023/06/14 09:27:42;;;;;;;;;5.00;4.67;;;;;28.35;44.11;100753.78;146622;602;46010;-68
2023/06/14 09:30:43;;;;;;;;;4.00;4.00;;;;;28.24;44.00;100752.22;146619;660;46014;-68
2023/06/14 09:33:47;;;;;;;;;6.67;5.67;;;;;28.09;45.37;100742.75;146619;628;47012;-67
2023/06/14 09:36:54;;;;;;;;;6.00;6.00;;;;;27.79;46.40;100717.63;146616;565;47012;-68
2023/06/14 09:39:55;;;;;;;;;5.00;5.00;;;;;28.00;47.05;100745.59;146620;598;47020;-68
2023/06/14 09:42:53;;;;;;;;;5.00;5.00;;;;;28.12;46.09;100747.16;146616;648;47016;-67
2023/06/14 09:45:49;;;;;;;;;8.00;6.00;;;;;28.18;47.10;100748.81;146623;593;46010;-67
2023/06/14 09:48:48;;;;;;;;;4.00;4.00;;;;;28.19;45.08;100748.75;146620;566;46916;-68
2023/06/14 09:52:06;;;;;;;;;5.67;5.67;;;;;28.16;45.15;100748.81;146624;675;46012;-67
2023/06/14 09:55:00;;;;;;;;;3.67;2.67;;;;;28.06;46.52;100750.81;146620;582;46916;-67
2023/06/14 09:58:13;;;;;;;;;6.00;4.67;;;;;28.01;46.18;100743.84;146621;564;47011;-67
2023/06/14 10:01:25;;;;;;;;;5.00;4.67;;;;;25.75;47.37;100362.13;146621;700;46016;-68
2023/06/14 10:04:26;;;;;;;;;5.00;4.00;;;;;27.97;45.23;100737.66;146618;642;47020;-67
2023/06/14 10:07:35;;;;;;;;;5.00;5.00;;;;;28.00;46.51;100737.59;146617;587;47012;-65
2023/06/14 10:10:54;;;;;;;;;4.67;4.67;;;;;28.05;46.22;100738.41;146624;592;47010;-68
2023/06/14 10:13:57;;;;;;;;;7.00;7.00;;;;;28.07;46.67;100733.94;146620;633;47032;-68
2023/06/14 10:17:53;;;;;;;;;6.00;6.00;;;;;26.41;49.00;100438.03;146622;593;46020;-67
2023/06/14 10:21:46;;;;;;;;;4.67;4.67;;;;;26.64;47.88;100464.25;146619;602;46017;-68
2023/06/14 10:24:57;;;;;;;;;5.00;5.00;;;;;28.29;45.24;100731.69;146623;617;46010;-67
2023/06/14 10:28:09;;;;;;;;;6.00;4.33;;;;;28.38;46.32;100727.94;146620;571;46012;-68
2023/06/14 10:31:44;;;;;;;;;7.00;6.00;;;;;27.18;46.94;100506.66;146619;563;46020;-68
2023/06/14 10:34:49;;;;;;;;;4.00;3.00;;;;;27.06;48.31;100495.34;146705;571;46022;-68
2023/06/14 10:37:55;;;;;;;;;6.67;5.33;;;;;28.33;44.92;100713.81;146617;629;46016;-68
2023/06/14 10:41:11;;;;;;;;;4.00;4.00;;;;;26.15;45.07;100334.88;146618;696;47010;-67
2023/06/14 10:44:48;;;;;;;;;5.67;5.67;;;;;28.25;46.49;100700.63;146619;576;46016;-68
2023/06/14 10:47:54;;;;;;;;;;;;;;;;;;;;;
2023/06/14 10:50:51;;;;;;;;;6.00;5.00;;;;;28.27;45.82;100684.63;146618;714;46914;-68
2023/06/14 10:54:12;;;;;;;;;5.67;5.00;;;;;28.37;46.46;100687.97;146624;565;47010;-68
2023/06/14 10:57:20;;;;;;;;;5.67;5.67;;;;;28.46;49.03;100686.00;146615;629;47012;-69
2023/06/14 11:00:21;;;;;;;;;6.33;5.67;;;;;28.49;45.77;100685.03;146622;618;47020;-67
2023/06/14 11:03:55;;;;;;;;;6.00;4.67;;;;;27.18;48.82;100455.22;146619;596;47012;-68
2023/06/14 11:07:48;;;;;;;;;6.00;6.00;;;;;26.78;47.82;100399.25;146624;580;46020;-69
2023/06/14 11:11:10;;;;;;;;;5.00;5.00;;;;;27.15;47.57;100461.47;146618;600;46017;-68
2023/06/14 11:14:28;;;;;;;;;6.67;6.67;;;;;28.50;46.33;100695.66;146622;577;46020;-70
2023/06/14 11:17:37;;;;;;;;;7.00;6.00;;;;;28.50;48.76;100700.12;146620;598;46014;-71
2023/06/14 11:20:41;;;;;;;;;8.33;6.67;;;;;28.45;48.67;100699.38;146621;615;46020;-67
2023/06/14 11:23:51;;;;;;;;;9.00;6.67;;;;;28.42;47.66;100697.66;146617;643;46012;-68
2023/06/14 11:26:57;;;;;;;;;6.00;5.00;;;;;28.40;48.00;100701.22;146621;565;46020;-68
2023/06/14 11:29:58;;;;;;;;;6.00;6.00;;;;;28.39;47.99;100707.47;146619;663;46918;-66
2023/06/14 11:32:55;;;;;;;;;5.00;5.00;;;;;28.41;47.43;100700.34;146621;666;46020;-66
2023/06/14 11:35:51;;;;;;;;;6.67;6.67;;;;;28.46;48.11;100685.13;146620;612;46016;-67
2023/06/14 11:38:48;;;;;;;;;7.00;6.00;;;;;28.47;47.14;100702.84;146621;613;47020;-69
2023/06/14 11:41:49;;;;;;;;;6.33;4.67;;;;;28.51;48.47;100694.78;146618;595;46012;-65
2023/06/14 11:45:04;;;;;;;;;5.67;5.00;;;;;28.52;46.34;100688.50;146624;602;47010;-67
2023/06/14 11:48:15;;;;;;;;;7.00;6.00;;;;;28.59;45.38;100704.38;146617;648;46017;-67
2023/06/14 11:51:23;;;;;;;;;4.67;4.67;;;;;28.62;47.08;100698.97;146623;617;46020;-66
2023/06/14 11:54:20;;;;;;;;;5.67;5.00;;;;;28.62;47.50;100697.16;146612;611;47917;-67
2023/06/14 11:57:19;;;;;;;;;5.33;4.33;;;;;28.57;44.64;100708.84;146621;604;46010;-67
2023/06/14 12:00:33;;;;;;;;;7.33;6.33;;;;;28.42;44.55;100705.66;146618;576;47012;-66
2023/06/14 12:03:35;;;;;;;;;6.33;6.00;;;;;28.26;46.78;100690.87;146622;652;46032;-67
2023/06/14 12:06:43;;;;;;;;;6.00;5.00;;;;;28.11;47.89;100684.09;146620;583;47916;-68
2023/06/14 12:09:45;;;;;;;;;6.33;6.00;;;;;28.07;47.81;100683.28;146625;577;46010;-66
2023/06/14 12:13:03;;;;;;;;;5.33;5.33;;;;;27.74;48.95;100643.97;146617;574;47012;-66
2023/06/14 12:16:20;;;;;;;;;8.00;8.00;;;;;28.01;49.59;100674.53;146622;593;46015;-67
2023/06/14 12:19:24;;;;;;;;;5.00;5.00;;;;;28.11;46.87;100675.22;146617;632;47012;-67
2023/06/14 12:22:30;;;;;;;;;6.33;5.67;;;;;28.15;48.58;100658.25;146622;591;47018;-67
2023/06/14 12:25:51;;;;;;;;;7.00;6.33;;;;;26.37;49.61;100337.12;146620;577;46012;-67
2023/06/14 12:29:04;;;;;;;;;8.67;6.00;;;;;27.26;48.68;100445.28;146624;662;47010;-67
2023/06/14 12:32:00;;;;;;;;;7.67;6.67;;;;;28.70;48.13;100656.97;146616;569;47012;-66
2023/06/14 12:34:54;;;;;;;;;6.33;6.33;;;;;28.82;47.25;100654.00;146645;581;45010;-67
2023/06/14 12:38:08;;;;;;;;;7.00;6.00;;;;;28.86;47.31;100644.13;146640;582;46012;-66
2023/06/14 12:41:01;;;;;;;;;7.00;7.00;;;;;28.89;47.46;100644.06;146644;570;46014;-68
2023/06/14 12:43:59;;;;;;;;;6.67;6.67;;;;;28.90;47.56;100624.44;146639;601;45012;-67
2023/06/14 12:46:54;;;;;;;;;5.33;5.33;;;;;28.82;47.79;100630.00;146646;650;45011;-67
2023/06/14 12:49:51;;;;;;;;;8.33;7.00;;;;;28.72;48.09;100607.09;146641;592;45014;-67
2023/06/14 12:52:48;;;;;;;;;6.67;6.67;;;;;28.66;48.02;100612.59;146643;686;45010;-68
2023/06/14 12:55:54;;;;;;;;;5.33;5.33;;;;;28.65;47.90;100595.72;146636;630;45016;-67
2023/06/14 12:59:07;;;;;;;;;6.33;6.00;;;;;27.31;48.60;100363.50;146644;677;45010;-68
2023/06/14 13:02:15;;;;;;;;;8.33;7.00;;;;;28.47;46.84;100586.37;146639;573;45016;-67
2023/06/14 13:05:26;;;;;;;;;6.33;5.33;;;;;26.60;46.04;100308.28;146644;580;45036;-66
2023/06/14 13:08:27;;;;;;;;;6.67;6.67;;;;;28.09;49.25;100574.81;146642;593;45031;-68
2023/06/14 13:11:28;;;;;;;;;6.67;5.67;;;;;27.97;49.00;100564.44;146644;628;46010;-66
2023/06/14 13:14:27;;;;;;;;;;;;;;;;;;;;;
2023/06/14 13:17:38;;;;;;;;;6.00;6.00;;;;;28.03;49.19;100556.31;146619;611;46014;-66
2023/06/14 13:20:38;;;;;;;;;8.00;7.00;;;;;28.00;49.99;100545.72;146623;573;46010;-67
2023/06/14 13:23:42;;;;;;;;;7.33;7.33;;;;;27.92;50.07;100547.69;146619;607;47012;-68
2023/06/14 13:26:39;;;;;;;;;6.33;6.00;;;;;27.96;50.98;100548.50;146621;632;46020;-67
2023/06/14 13:29:46;;;;;;;;;9.00;7.00;;;;;28.06;51.59;100558.03;146621;613;46012;-68
2023/06/14 13:32:43;;;;;;;;;9.67;9.67;;;;;28.04;52.00;100567.88;146623;584;46020;-67
2023/06/14 13:35:48;;;;;;;;;5.00;5.00;;;;;27.98;52.80;100558.22;146617;610;46016;-66
2023/06/14 13:38:48;;;;;;;;;7.00;5.67;;;;;27.86;51.50;100551.38;146623;569;46010;-66
2023/06/14 13:41:58;;;;;;;;;;;;;;;;;;;;;
2023/06/14 13:44:58;;;;;;;;;4.00;4.00;;;;;27.64;53.81;100568.72;146624;564;46021;-66
2023/06/14 13:48:14;;;;;;;;;7.67;7.00;;;;;27.60;51.67;100573.25;146621;579;46033;-67
2023/06/14 13:51:29;;;;;;;;;8.67;6.67;;;;;27.58;53.72;100576.84;146624;579;46035;-67
2023/06/14 13:54:35;;;;;;;;;8.00;7.00;;;;;27.58;52.16;100563.53;146619;594;47909;-67
2023/06/14 13:57:32;;;;;;;;;6.00;6.00;;;;;27.50;53.62;100563.66;146622;571;46020;-66
2023/06/14 14:00:44;;;;;;;;;;;;;;;;;;;;;
2023/06/14 14:03:49;;;;;;;;;;;;;;;;;;;;;
2023/06/14 14:06:52;;;;;;;;;7.00;7.00;;;;;27.48;50.94;100586.81;146619;608;47012;-66
2023/06/14 14:10:03;;;;;;;;;7.00;5.67;;;;;27.49;51.71;100558.38;146618;571;47012;-68
2023/06/14 14:12:59;;;;;;;;;9.25;7.50;;;;;27.49;51.15;100585.03;146618;587;46017;-68
2023/06/14 14:15:56;;;;;;;;;6.00;4.67;;;;;27.40;48.52;100591.41;146621;580;46020;-68
2023/06/14 14:18:57;;;;;;;;;6.00;5.67;;;;;27.29;49.93;100582.75;146619;582;47012;-66
2023/06/14 14:22:05;;;;;;;;;7.00;6.00;;;;;25.06;50.45;100188.06;146620;600;46020;-66
2023/06/14 14:25:07;;;;;;;;;7.67;5.33;;;;;27.50;49.15;100570.78;146619;569;47012;-66
2023/06/14 14:28:03;;;;;;;;;7.00;7.00;;;;;27.53;46.70;100578.72;146620;551;46010;-66
2023/06/14 14:31:25;;;;;;;;;6.67;6.67;;;;;27.38;48.03;100574.56;146618;576;47012;-66
2023/06/14 14:34:28;;;;;;;;;8.67;8.33;;;;;27.20;47.16;100577.59;146622;591;46020;-64
2023/06/14 14:37:27;;;;;;;;;7.67;7.67;;;;;27.12;46.87;100581.25;146621;591;46012;-67
2023/06/14 14:40:36;;;;;;;;;5.33;5.00;;;;;27.03;46.64;100583.22;146617;643;46010;-66